Time;durP1;ratioP1;P1;durP2;ratioP2;P2;SDS_P1;SDS_P2;PMS_P1;PMS_P2;Temp;Humidity;BMP_temperature;BMP_pressure;BME280_temperature;BME280_humidity;BME280_pressure;Samples;Min_cycle;Max_cycle;Signal;HPM_P1;HPM_P2
2023/09/16 00:01:43;;;;;;;7.65;4.00;;;;;;;15.44;66.03;101522.53;15804504;28;20261;-46
2023/09/16 00:09:16;;;;;;;8.52;4.00;;;;;;;15.20;66.60;101522.31;15781246;28;20056;-46
2023/09/16 00:16:52;;;;;;;6.57;4.20;;;;;;;15.03;67.35;101521.22;15789564;28;20127;-52
2023/09/16 00:24:25;;;;;;;7.70;3.90;;;;;;;14.79;67.90;101517.44;15775627;28;20091;-49
2023/09/16 00:32:04;;;;;;;5.47;3.65;;;;;;;14.91;67.53;101515.69;15740497;28;20045;-49
2023/09/16 00:39:38;;;;;;;5.90;4.00;;;;;;;15.02;67.19;101517.69;15722317;28;20098;-49
2023/09/16 00:47:13;;;;;;;8.95;3.80;;;;;;;15.10;66.66;101508.44;15737917;28;20047;-50
2023/09/16 00:54:50;;;;;;;8.43;4.38;;;;;;;14.70;67.91;101506.06;15737436;28;20052;-51
2023/09/16 01:02:25;;;;;;;7.78;3.78;;;;;;;15.09;66.29;101493.28;15778533;28;20040;-52
2023/09/16 01:09:58;;;;;;;7.72;4.00;;;;;;;14.64;67.03;101468.28;15783323;28;20050;-46
2023/09/16 01:17:40;;;;;;;7.03;3.85;;;;;;;15.25;65.43;101487.31;15774050;28;20135;-49
2023/09/16 01:25:15;;;;;;;6.60;3.95;;;;;;;14.83;66.68;101479.97;15800851;28;20075;-48
2023/09/16 01:32:54;;;;;;;6.70;3.80;;;;;;;14.18;68.34;101472.09;15781996;28;20165;-50
2023/09/16 01:40:32;;;;;;;8.48;3.70;;;;;;;14.36;67.63;101485.72;15781125;28;20043;-48
2023/09/16 01:48:07;;;;;;;7.25;3.63;;;;;;;14.38;67.70;101469.28;15761101;28;20139;-50
2023/09/16 01:55:42;;;;;;;5.55;3.45;;;;;;;14.56;66.76;101466.69;15797921;28;20076;-50
2023/09/16 02:03:16;;;;;;;8.10;3.90;;;;;;;14.09;67.74;101462.59;15779651;28;20055;-51
2023/09/16 02:10:52;;;;;;;10.38;3.90;;;;;;;14.02;68.16;101465.31;15795744;28;20043;-49
2023/09/16 02:18:26;;;;;;;7.28;3.88;;;;;;;14.52;66.32;101451.97;15766620;28;20036;-51
2023/09/16 02:26:02;;;;;;;6.95;3.65;;;;;;;14.22;67.43;101457.09;15787932;28;20047;-48
2023/09/16 02:33:38;;;;;;;6.85;3.90;;;;;;;13.91;67.95;101456.03;15778608;28;20496;-42
2023/09/16 02:41:17;;;;;;;6.38;3.60;;;;;;;14.72;65.71;101443.69;15794643;28;20040;-42
2023/09/16 02:48:51;;;;;;;9.75;3.50;;;;;;;13.90;68.15;101437.34;15776305;28;20429;-42
2023/09/16 02:56:30;;;;;;;7.20;4.15;;;;;;;14.17;67.36;101433.44;15731667;28;20060;-42
2023/09/16 03:04:07;;;;;;;5.97;3.80;;;;;;;13.93;67.76;101445.81;15742284;28;20403;-43
2023/09/16 03:11:41;;;;;;;7.78;3.65;;;;;;;14.26;66.77;101432.13;15773891;28;20319;-42
2023/09/16 03:19:16;;;;;;;7.47;3.63;;;;;;;14.49;66.09;101431.59;15731052;28;20037;-43
2023/09/16 03:27:00;;;;;;;5.65;3.75;;;;;;;13.92;67.50;101427.16;15791522;28;20040;-43
2023/09/16 03:34:33;;;;;;;8.88;3.78;;;;;;;14.36;66.45;101409.22;15746656;28;20148;-43
2023/09/16 03:42:08;;;;;;;6.45;4.00;;;;;;;14.08;67.04;101398.81;15760558;28;20109;-43
2023/09/16 03:49:41;;;;;;;5.88;3.83;;;;;;;13.87;67.43;101395.44;15760571;28;20036;-41
2023/09/16 03:57:16;;;;;;;7.38;3.47;;;;;;;13.82;67.77;101397.13;15770603;28;20362;-41
2023/09/16 04:04:50;;;;;;;8.70;3.90;;;;;;;13.69;67.83;101393.44;15787202;28;20044;-41
2023/09/16 04:12:24;;;;;;;7.22;3.50;;;;;;;13.46;68.42;101387.72;15786484;28;20038;-44
2023/09/16 04:19:59;;;;;;;6.13;4.03;;;;;;;13.56;68.03;101380.00;15786307;28;20044;-43
2023/09/16 04:27:33;;;;;;;8.27;4.15;;;;;;;13.27;68.71;101387.56;15785591;28;20573;-41
2023/09/16 04:35:07;;;;;;;7.00;3.60;;;;;;;13.52;67.90;101393.09;15784897;28;20055;-44
2023/09/16 04:42:43;;;;;;;7.47;4.18;;;;;;;13.44;68.33;101401.44;15785027;28;20397;-46
2023/09/16 04:50:21;;;;;;;7.15;4.00;;;;;;;14.08;66.13;101410.44;15785471;28;20464;-42
2023/09/16 04:57:56;;;;;;;9.18;3.90;;;;;;;13.82;66.77;101407.91;15784660;28;20082;-45
2023/09/16 05:05:29;;;;;;;5.93;4.25;;;;;;;13.48;67.70;101402.66;15784312;28;20456;-49
2023/09/16 05:13:04;;;;;;;;;;;;;;;13.27;68.36;101402.94;15768366;28;20049;-45
2023/09/16 05:20:38;;;;;;;6.32;3.90;;;;;;;13.87;67.26;101400.81;15703237;28;19924;-42
2023/09/16 05:28:12;;;;;;;5.78;3.88;;;;;;;13.70;67.34;101408.56;15737639;28;20489;-43
2023/09/16 05:35:46;;;;;;;8.00;3.85;;;;;;;13.69;66.98;101408.78;15735913;28;20509;-43
2023/09/16 05:43:20;;;;;;;16.83;9.52;;;;;;;14.22;66.05;101409.34;15718276;28;20054;-43
2023/09/16 05:50:57;;;;;;;10.23;4.60;;;;;;;13.71;67.32;101418.34;15718331;28;20041;-42
2023/09/16 05:58:36;;;;;;;9.05;4.03;;;;;;;14.15;66.12;101421.22;15717930;28;20040;-42
2023/09/16 06:06:11;;;;;;;8.25;4.32;;;;;;;14.62;64.86;101429.84;15701022;28;20075;-46
2023/09/16 06:13:46;;;;;;;7.68;3.90;;;;;;;14.18;65.68;101427.03;15737459;28;20040;-42
2023/09/16 06:21:25;;;;;;;9.20;4.28;;;;;;;14.74;64.30;101425.41;15781129;28;20052;-46
2023/09/16 06:29:01;;;;;;;10.00;3.97;;;;;;;15.35;62.68;101429.19;15780107;28;20118;-44
2023/09/16 06:36:38;;;;;;;7.40;3.90;;;;;;;15.27;62.77;101423.00;15778891;28;20040;-45
2023/09/16 06:44:13;;;;;;;8.93;3.85;;;;;;;15.67;62.57;101425.28;15778252;28;20434;-43
2023/09/16 06:51:46;;;;;;;6.82;3.90;;;;;;;15.86;61.59;101417.97;15778043;28;20133;-41
2023/09/16 06:59:21;;;;;;;7.97;4.15;;;;;;;16.59;60.09;101420.41;15799167;28;20112;-46
2023/09/16 07:06:54;;;;;;;5.60;4.05;;;;;;;17.03;58.07;101420.13;15808309;28;20113;-44
2023/09/16 07:14:29;;;;;;;9.45;3.90;;;;;;;17.57;57.66;101410.69;15780819;28;20080;-40
2023/09/16 07:22:05;;;;;;;8.77;4.72;;;;;;;18.03;57.11;101418.97;15744637;28;20443;-49
2023/09/16 07:29:42;;;;;;;6.57;3.80;;;;;;;18.10;56.64;101414.22;15744676;28;20053;-48
2023/09/16 07:37:15;;;;;;;9.23;3.65;;;;;;;19.07;53.72;101402.19;15726668;28;20139;-42
2023/09/16 07:44:50;;;;;;;7.97;4.00;;;;;;;19.08;54.66;101401.97;15726818;28;20099;-44
2023/09/16 07:52:23;;;;;;;4.95;3.25;;;;;;;19.65;54.13;101395.38;15743433;28;20406;-45
2023/09/16 07:59:58;;;;;;;6.53;3.60;;;;;;;20.27;52.19;101405.81;15741647;28;20076;-41
2023/09/16 08:07:31;;;;;;;6.90;3.90;;;;;;;20.95;50.36;101391.66;15743089;28;20139;-43
2023/09/16 08:15:08;;;;;;;9.57;3.85;;;;;;;20.85;49.67;101403.31;15775115;28;20413;-44
2023/09/16 08:22:41;;;;;;;7.18;3.30;;;;;;;21.51;47.98;101406.44;15803136;28;20032;-47
2023/09/16 08:30:16;;;;;;;5.10;3.33;;;;;;;22.01;48.08;101393.16;15804775;28;20054;-45
2023/09/16 08:37:48;;;;;;;6.72;3.25;;;;;;;21.97;48.43;101400.31;15805891;22;20126;-52
2023/09/16 08:45:27;;;;;;;6.07;3.03;;;;;;;22.59;46.65;101385.59;15808960;28;20076;-54
2023/09/16 08:53:03;;;;;;;5.82;3.00;;;;;;;22.49;48.32;101369.19;15852997;28;20043;-52
2023/09/16 09:00:39;;;;;;;6.72;3.25;;;;;;;22.80;46.27;101378.16;15871497;28;20044;-54
2023/09/16 09:08:12;;;;;;;9.23;3.50;;;;;;;23.08;45.73;101372.13;15852207;28;20093;-52
2023/09/16 09:15:49;;;;;;;4.85;3.17;;;;;;;23.90;44.00;101367.06;15869603;28;20444;-50
2023/09/16 09:23:22;;;;;;;5.22;2.90;;;;;;;23.77;42.88;101356.75;15859799;28;20042;-54
2023/09/16 09:30:58;;;;;;;4.53;3.08;;;;;;;23.03;44.88;101357.59;15850703;28;20396;-52
2023/09/16 09:38:33;;;;;;;4.72;3.00;;;;;;;23.02;45.50;101345.03;15868280;28;20051;-50
2023/09/16 09:46:07;;;;;;;5.05;2.85;;;;;;;23.56;43.63;101333.28;15867916;28;20419;-52
2023/09/16 09:53:40;;;;;;;4.70;2.70;;;;;;;24.06;42.90;101329.41;15867626;28;20134;-54
2023/09/16 10:01:16;;;;;;;4.72;2.70;;;;;;;24.37;42.31;101321.75;15849810;28;20473;-55
2023/09/16 10:08:49;;;;;;;4.85;2.97;;;;;;;23.56;44.25;101314.09;15866671;28;20048;-53
2023/09/16 10:16:24;;;;;;;4.75;2.58;;;;;;;24.88;41.88;101310.25;15814721;28;20063;-52
2023/09/16 10:23:57;;;;;;;5.32;2.78;;;;;;;25.69;40.63;101302.03;15784811;28;20153;-53
2023/09/16 10:31:33;;;;;;;3.65;2.78;;;;;;;26.39;38.80;101290.19;15802571;28;20059;-51
2023/09/16 10:39:07;;;;;;;6.97;3.33;;;;;;;26.50;38.16;101288.09;15783890;28;20083;-54
2023/09/16 10:46:43;;;;;;;5.07;3.30;;;;;;;26.17;38.89;101268.84;15801918;28;20076;-52
2023/09/16 10:54:26;;;;;;;5.57;2.80;;;;;;;26.69;38.31;101261.28;15802118;28;20048;-50
2023/09/16 11:02:07;;;;;;;4.32;2.90;;;;;;;26.31;38.38;101263.38;15801148;28;20036;-53
2023/09/16 11:09:42;;;;;;;4.63;3.40;;;;;;;26.71;37.60;101265.34;15802721;28;20067;-53
2023/09/16 11:17:17;;;;;;;6.78;3.17;;;;;;;26.23;39.37;101244.81;15852082;28;20446;-50
2023/09/16 11:24:53;;;;;;;4.57;2.78;;;;;;;27.92;36.20;101240.06;15845853;28;20048;-51
2023/09/16 11:32:28;;;;;;;7.22;3.50;;;;;;;27.83;36.75;101231.72;15864689;28;20047;-51
2023/09/16 11:40:02;;;;;;;4.10;3.20;;;;;;;28.08;35.93;101216.47;15864068;28;20551;-53
2023/09/16 11:47:37;;;;;;;3.88;3.22;;;;;;;28.42;35.61;101215.03;15849877;28;20043;-51
2023/09/16 11:55:11;;;;;;;3.72;2.83;;;;;;;28.47;35.17;101206.59;15874744;28;20074;-51
2023/09/16 12:02:46;;;;;;;4.20;2.97;;;;;;;28.23;35.30;101204.19;15856578;28;20046;-51
2023/09/16 12:10:19;;;;;;;5.60;2.78;;;;;;;28.26;35.98;101194.44;15874011;28;20047;-52
2023/09/16 12:17:53;;;;;;;4.65;3.20;;;;;;;28.19;35.72;101189.41;15817061;28;20059;-51
2023/09/16 12:25:42;;;;;;;3.92;2.80;;;;;;;28.69;35.03;101189.13;15810980;28;20453;-52
2023/09/16 12:33:16;;;;;;;3.53;3.00;;;;;;;28.95;34.34;101178.94;15809041;28;20127;-54
2023/09/16 12:40:50;;;;;;;5.85;3.00;;;;;;;29.40;33.82;101173.09;15808532;28;20040;-50
2023/09/16 12:48:24;;;;;;;3.60;2.92;;;;;;;28.97;34.81;101157.31;15800423;28;20330;-51
2023/09/16 12:55:57;;;;;;;4.35;2.90;;;;;;;28.83;35.42;101147.53;15807640;28;20056;-53
2023/09/16 13:03:38;;;;;;;4.65;2.90;;;;;;;29.13;34.86;101143.00;15789556;28;20047;-52
2023/09/16 13:11:14;;;;;;;3.73;3.13;;;;;;;29.30;34.38;101143.00;15789221;28;20477;-52
2023/09/16 13:18:49;;;;;;;5.97;3.00;;;;;;;29.94;33.19;101123.69;15869450;28;20123;-54
2023/09/16 13:26:22;;;;;;;5.47;3.03;;;;;;;30.70;32.12;101135.81;15860612;28;20089;-51
2023/09/16 13:34:01;;;;;;;2.95;2.63;;;;;;;28.88;35.11;101128.03;15851352;28;20188;-54
2023/09/16 13:41:34;;;;;;;3.42;2.72;;;;;;;29.30;33.88;101112.59;15868224;28;20047;-50
2023/09/16 13:49:09;;;;;;;3.85;3.17;;;;;;;27.83;37.21;101112.28;15868677;28;20535;-51
2023/09/16 13:56:43;;;;;;;5.50;3.25;;;;;;;27.71;38.11;101088.88;15867996;28;20051;-49
2023/09/16 14:04:18;;;;;;;5.82;3.35;;;;;;;27.62;37.90;101089.94;15867643;28;20156;-49
2023/09/16 14:11:51;;;;;;;3.85;3.30;;;;;;;26.91;38.02;101087.00;15861059;28;20104;-52
2023/09/16 14:19:27;;;;;;;4.85;3.47;;;;;;;26.68;38.63;101086.16;15803939;28;20044;-51
2023/09/16 14:27:00;;;;;;;4.68;3.20;;;;;;;26.94;38.46;101064.34;15801566;28;20451;-52
2023/09/16 14:34:35;;;;;;;3.80;3.40;;;;;;;26.25;39.76;101071.94;15796667;22;20072;-54
2023/09/16 14:42:09;;;;;;;4.00;3.53;;;;;;;26.67;39.24;101073.50;15795798;28;20035;-47
2023/09/16 14:49:43;;;;;;;3.88;3.30;;;;;;;26.56;39.65;101058.34;15798265;28;20412;-48
2023/09/16 14:57:17;;;;;;;6.03;3.30;;;;;;;26.68;39.96;101053.94;15778634;28;20407;-48
2023/09/16 15:04:55;;;;;;;5.93;3.20;;;;;;;25.99;41.26;101046.91;15779125;28;20147;-48
2023/09/16 15:12:28;;;;;;;4.10;3.50;;;;;;;26.20;41.12;101050.84;15789182;28;20067;-47
2023/09/16 15:20:05;;;;;;;4.75;3.67;;;;;;;26.55;40.45;101041.03;15798280;28;20040;-48
2023/09/16 15:27:38;;;;;;;4.45;3.40;;;;;;;26.45;40.47;101036.56;15807856;28;20055;-53
2023/09/16 15:35:21;;;;;;;6.15;3.60;;;;;;;26.47;41.10;101030.72;15807671;28;20044;-47
2023/09/16 15:42:54;;;;;;;5.10;3.53;;;;;;;26.38;40.81;101033.38;15807541;28;20330;-53
2023/09/16 15:50:35;;;;;;;4.15;3.40;;;;;;;26.47;40.55;101029.94;15806873;28;20318;-53
2023/09/16 15:58:12;;;;;;;4.78;3.50;;;;;;;26.99;39.67;101031.16;15806000;28;20052;-51
2023/09/16 16:05:48;;;;;;;6.97;3.60;;;;;;;27.09;40.32;101033.69;15806447;28;20477;-50
2023/09/16 16:13:22;;;;;;;5.60;3.40;;;;;;;26.80;40.90;101025.81;15787111;28;20048;-49
2023/09/16 16:20:57;;;;;;;5.22;3.35;;;;;;;26.29;41.75;101023.41;15741989;28;20587;-50
2023/09/16 16:28:31;;;;;;;7.43;3.30;;;;;;;26.48;42.01;101026.03;15741556;28;20049;-50
2023/09/16 16:36:07;;;;;;;7.18;3.35;;;;;;;26.52;41.70;101016.84;15739907;28;20091;-48
2023/09/16 16:43:40;;;;;;;3.95;3.22;;;;;;;26.44;42.42;101023.13;15740560;28;20045;-51
2023/09/16 16:51:16;;;;;;;4.45;3.80;;;;;;;26.17;43.05;101026.72;15743573;28;20067;-50
2023/09/16 16:58:50;;;;;;;13.77;6.78;;;;;;;26.26;43.01;101035.88;15783403;28;20119;-47
2023/09/16 17:06:24;;;;;;;6.45;4.32;;;;;;;25.69;44.25;101036.19;15793550;28;20168;-47
2023/09/16 17:14:00;;;;;;;6.13;4.30;;;;;;;25.33;44.88;101047.00;15779174;28;20098;-51
2023/09/16 17:21:36;;;;;;;10.60;9.02;;;;;;;25.22;46.06;101052.97;15738264;28;20469;-48
2023/09/16 17:29:09;;;;;;;5.82;4.90;;;;;;;25.07;46.27;101060.34;15737714;28;20689;-48
2023/09/16 17:36:43;;;;;;;7.15;4.70;;;;;;;24.36;47.65;101064.09;15737160;28;20424;-48
2023/09/16 17:44:17;;;;;;;8.75;4.80;;;;;;;24.51;47.81;101058.44;15736017;28;20063;-45
2023/09/16 17:51:52;;;;;;;13.02;8.55;;;;;;;24.61;48.09;101068.44;15736766;28;20064;-46
2023/09/16 17:59:25;;;;;;;19.33;10.82;;;;;;;23.77;49.54;101070.84;15737203;28;20041;-47
2023/09/16 18:06:59;;;;;;;14.27;9.75;;;;;;;23.96;49.38;101074.44;15736169;28;20055;-48
2023/09/16 18:14:32;;;;;;;10.05;7.03;;;;;;;23.72;50.41;101079.13;15745730;28;20048;-52
2023/09/16 18:22:08;;;;;;;7.78;5.85;;;;;;;23.62;49.57;101082.75;15798425;28;20048;-50
2023/09/16 18:29:42;;;;;;;9.68;5.53;;;;;;;23.34;50.04;101067.94;15798754;28;20352;-46
2023/09/16 18:37:17;;;;;;;9.10;5.93;;;;;;;23.10;51.07;101082.38;15762761;28;20055;-47
2023/09/16 18:44:50;;;;;;;8.63;6.13;;;;;;;23.43;51.63;101077.16;15797383;28;20504;-48
2023/09/16 18:52:28;;;;;;;8.65;5.80;;;;;;;22.94;52.85;101080.84;15789516;28;20052;-47
2023/09/16 19:00:03;;;;;;;8.82;6.20;;;;;;;22.69;53.02;101079.06;15774913;28;20040;-48
2023/09/16 19:07:38;;;;;;;8.93;6.00;;;;;;;22.52;54.13;101079.47;15775573;28;20067;-49
2023/09/16 19:15:12;;;;;;;7.13;6.28;;;;;;;22.06;54.70;101073.34;15791624;28;20062;-47
2023/09/16 19:22:47;;;;;;;10.02;6.45;;;;;;;21.34;56.75;101089.84;15802266;28;20127;-51
2023/09/16 19:30:20;;;;;;;11.52;7.05;;;;;;;21.88;56.14;101081.03;15806557;28;20508;-50
2023/09/16 19:37:55;;;;;;;12.05;7.65;;;;;;;21.72;56.38;101082.16;15806828;28;20157;-47
2023/09/16 19:45:28;;;;;;;12.85;10.43;;;;;;;21.34;58.04;101080.84;15806123;28;20063;-47
2023/09/16 19:53:03;;;;;;;15.60;10.70;;;;;;;21.02;59.21;101076.44;15805266;28;20135;-46
2023/09/16 20:00:42;;;;;;;16.05;12.57;;;;;;;20.65;60.27;101073.91;15787718;28;20032;-49
2023/09/16 20:08:17;;;;;;;21.98;13.18;;;;;;;20.58;60.48;101084.28;15803815;28;20044;-50
2023/09/16 20:15:50;;;;;;;18.05;12.63;;;;;;;20.22;61.45;101080.56;15803985;28;20036;-50
2023/09/16 20:23:27;;;;;;;17.80;12.85;;;;;;;20.15;61.84;101071.84;15797094;28;20516;-47
2023/09/16 20:31:00;;;;;;;16.00;11.75;;;;;;;19.90;62.34;101061.59;15783046;28;20140;-51
2023/09/16 20:38:35;;;;;;;13.63;10.50;;;;;;;19.49;62.97;101034.09;15801828;28;20449;-49
2023/09/16 20:46:10;;;;;;;13.02;10.10;;;;;;;19.59;62.87;101061.41;15783711;28;20079;-46
2023/09/16 20:53:45;;;;;;;13.50;10.23;;;;;;;19.33;63.71;101068.56;15744922;28;20093;-49
2023/09/16 21:01:18;;;;;;;14.45;10.45;;;;;;;19.29;63.93;101072.88;15738036;28;20044;-49
2023/09/16 21:08:53;;;;;;;17.05;13.52;;;;;;;19.25;63.84;101069.84;15715369;28;20119;-49
2023/09/16 21:16:26;;;;;;;24.33;19.15;;;;;;;19.15;64.51;101064.34;15742030;28;20441;-48
2023/09/16 21:24:03;;;;;;;24.42;19.23;;;;;;;18.99;64.71;101059.84;15734952;28;20045;-49
2023/09/16 21:31:36;;;;;;;22.65;18.08;;;;;;;18.63;65.72;101053.22;15710820;28;20044;-50
2023/09/16 21:39:11;;;;;;;;;;;;;;;18.66;65.78;101048.09;15746073;28;20113;-51
2023/09/16 21:46:44;;;;;;;21.65;17.52;;;;;;;18.54;65.94;101056.38;15780403;28;19920;-49
2023/09/16 21:54:19;;;;;;;21.63;17.15;;;;;;;18.47;65.94;101044.09;15779533;28;20043;-45
2023/09/16 22:01:55;;;;;;;21.35;17.20;;;;;;;18.41;66.23;101042.34;15798751;28;20040;-48
2023/09/16 22:09:29;;;;;;;21.00;16.95;;;;;;;18.33;66.25;101041.75;15798107;28;20086;-48
2023/09/16 22:17:02;;;;;;;21.67;16.45;;;;;;;18.26;66.59;101043.00;15778416;28;20048;-50
2023/09/16 22:24:36;;;;;;;;;;;;;;;18.10;67.36;101033.88;15796639;28;20043;-51
2023/09/16 22:32:09;;;;;;;20.10;15.10;;;;;;;18.11;67.19;101035.50;15777450;28;19986;-54
2023/09/16 22:39:43;;;;;;;20.42;14.35;;;;;;;17.99;67.11;101032.09;15796135;28;20093;-48
2023/09/16 22:47:17;;;;;;;20.02;15.40;;;;;;;17.99;67.02;101032.91;15795936;28;20131;-46
2023/09/16 22:54:52;;;;;;;22.90;15.77;;;;;;;17.83;67.64;101029.19;15780530;28;20032;-52
2023/09/16 23:02:26;;;;;;;23.63;18.20;;;;;;;17.70;67.79;101031.41;15795536;28;20067;-49
2023/09/16 23:10:10;;;;;;;22.35;19.00;;;;;;;17.64;67.97;101035.13;15796630;28;20040;-51
2023/09/16 23:17:43;;;;;;;21.65;17.40;;;;;;;17.45;68.65;101040.00;15743304;28;20044;-50
2023/09/16 23:25:20;;;;;;;;;;;;;;;17.43;68.58;101050.28;15735273;28;20079;-47
2023/09/16 23:32:53;;;;;;;27.35;19.75;;;;;;;17.32;68.47;101050.13;15787924;28;19920;-51
2023/09/16 23:40:27;;;;;;;26.45;22.67;;;;;;;17.30;69.02;101049.56;15776773;28;20040;-51
2023/09/16 23:48:02;;;;;;;27.55;22.67;;;;;;;17.29;68.48;101042.47;15805189;28;20040;-52
2023/09/16 23:55:37;;;;;;;29.77;24.23;;;;;;;17.02;69.44;101041.47;15805881;28;20098;-50
